createdAt,value
2022-10-03T00:01:21.978Z,2.87
2022-10-03T00:03:59.028Z,3.00
2022-10-03T00:06:34.011Z,2.73
2022-10-03T00:09:16.556Z,3.20
2022-10-03T00:12:00.620Z,2.97
2022-10-03T00:14:36.181Z,2.57
2022-10-03T00:17:10.899Z,2.60
2022-10-03T00:19:51.815Z,3.13
2022-10-03T00:22:30.972Z,2.43
2022-10-03T00:25:13.042Z,3.00
2022-10-03T00:27:46.755Z,2.60
2022-10-03T00:30:17.443Z,2.87
2022-10-03T00:33:03.314Z,3.13
2022-10-03T00:35:42.936Z,3.40
2022-10-03T00:38:24.063Z,2.10
2022-10-03T00:41:14.385Z,2.80
2022-10-03T00:44:19.888Z,2.67
2022-10-03T00:47:07.874Z,2.97
2022-10-03T00:49:59.998Z,3.40
2022-10-03T00:52:48.677Z,2.50
2022-10-03T00:55:24.294Z,4.30
2022-10-03T00:58:06.713Z,2.60
2022-10-03T01:00:34.954Z,2.30
2022-10-03T01:03:18.409Z,3.03
2022-10-03T01:05:56.319Z,3.20
2022-10-03T01:08:40.222Z,2.17
2022-10-03T01:11:19.140Z,2.90
2022-10-03T01:13:57.554Z,3.10
2022-10-03T01:16:33.999Z,2.77
2022-10-03T01:19:21.009Z,3.27
2022-10-03T01:21:54.908Z,2.70
2022-10-03T01:24:50.614Z,4.23
2022-10-03T01:27:26.211Z,2.83
2022-10-03T01:29:59.034Z,2.70
2022-10-03T01:32:33.155Z,3.20
2022-10-03T01:35:20.298Z,2.80
2022-10-03T01:37:57.425Z,3.57
2022-10-03T01:40:28.601Z,3.30
2022-10-03T01:43:03.113Z,3.00
2022-10-03T01:45:41.954Z,2.83
2022-10-03T01:48:15.153Z,3.47
2022-10-03T01:50:53.341Z,3.00
2022-10-03T01:53:26.793Z,2.50
2022-10-03T01:55:59.750Z,2.90
2022-10-03T01:58:33.666Z,2.60
2022-10-03T02:01:09.393Z,3.17
2022-10-03T02:03:44.244Z,2.80
2022-10-03T02:06:19.572Z,2.37
2022-10-03T02:08:54.305Z,2.80
2022-10-03T02:11:31.597Z,2.60
2022-10-03T02:14:07.322Z,3.17
2022-10-03T02:16:41.599Z,2.83
2022-10-03T02:19:18.827Z,2.50
2022-10-03T02:21:48.769Z,2.77
2022-10-03T02:24:37.559Z,2.10
2022-10-03T02:27:42.451Z,2.93
2022-10-03T02:30:18.020Z,2.37
2022-10-03T02:33:34.374Z,2.40
2022-10-03T02:36:31.349Z,3.20
2022-10-03T02:39:38.837Z,2.30
2022-10-03T02:42:39.866Z,2.40
2022-10-03T02:45:41.571Z,3.57
2022-10-03T02:48:51.580Z,2.67
2022-10-03T02:52:04.345Z,2.47
2022-10-03T02:54:54.987Z,2.10
2022-10-03T02:58:03.325Z,3.60
2022-10-03T03:00:46.800Z,2.50
2022-10-03T03:03:34.410Z,3.23
2022-10-03T03:06:47.793Z,2.83
2022-10-03T03:09:31.901Z,3.33
2022-10-03T03:12:28.890Z,2.33
2022-10-03T03:15:29.359Z,4.17
2022-10-03T03:18:06.104Z,2.50
2022-10-03T03:20:43.740Z,3.07
2022-10-03T03:23:45.963Z,4.50
2022-10-03T03:26:33.839Z,4.00
2022-10-03T03:29:10.821Z,3.40
2022-10-03T03:31:46.107Z,3.90
2022-10-03T03:34:20.078Z,3.50
2022-10-03T03:36:52.898Z,3.20
2022-10-03T03:39:45.781Z,2.77
2022-10-03T03:42:37.221Z,3.10
2022-10-03T03:45:25.280Z,2.90
2022-10-03T03:48:18.587Z,3.40
2022-10-03T03:50:54.374Z,4.00
2022-10-03T03:53:42.837Z,3.97
2022-10-03T03:56:29.239Z,3.40
2022-10-03T03:59:07.158Z,3.53
2022-10-03T04:01:58.456Z,4.50
2022-10-03T04:04:48.572Z,2.70
2022-10-03T04:07:27.668Z,3.17
2022-10-03T04:10:25.037Z,3.70
2022-10-03T04:13:33.547Z,2.70
2022-10-03T04:16:21.063Z,3.20
2022-10-03T04:19:02.423Z,1.90
2022-10-03T04:21:59.150Z,3.80
2022-10-03T04:24:51.823Z,2.60
2022-10-03T04:27:39.007Z,3.30
2022-10-03T04:30:12.190Z,2.70
2022-10-03T04:33:10.635Z,2.57
2022-10-03T04:36:12.146Z,2.83
2022-10-03T04:38:49.086Z,2.77
2022-10-03T04:41:25.497Z,2.73
2022-10-03T04:44:01.930Z,2.60
2022-10-03T04:46:37.685Z,2.73
2022-10-03T04:49:14.089Z,2.63
2022-10-03T04:51:55.378Z,3.27
2022-10-03T04:54:34.943Z,3.47
2022-10-03T04:57:07.797Z,2.90
2022-10-03T04:59:44.991Z,3.00
2022-10-03T05:02:36.602Z,2.70
2022-10-03T05:05:26.960Z,3.03
2022-10-03T05:08:03.883Z,2.77
2022-10-03T05:11:02.992Z,3.73
2022-10-03T05:13:37.495Z,3.33
2022-10-03T05:16:11.169Z,3.80
2022-10-03T05:18:46.458Z,3.50
2022-10-03T05:21:16.014Z,3.23
2022-10-03T05:23:52.850Z,3.17
2022-10-03T05:26:44.576Z,3.87
2022-10-03T05:29:20.210Z,3.00
2022-10-03T05:31:53.975Z,4.40
2022-10-03T05:34:39.061Z,3.60
2022-10-03T05:37:41.707Z,3.43
2022-10-03T05:40:16.407Z,3.90
2022-10-03T05:43:00.319Z,4.90
2022-10-03T05:45:32.144Z,4.30
2022-10-03T05:48:14.222Z,3.37
2022-10-03T05:51:10.740Z,4.57
2022-10-03T05:54:16.974Z,4.50
2022-10-03T05:57:11.948Z,3.80
2022-10-03T05:59:58.234Z,4.93
2022-10-03T06:03:00.465Z,4.40
2022-10-03T06:05:33.329Z,6.10
2022-10-03T06:08:44.165Z,5.30
2022-10-03T06:11:38.871Z,6.00
2022-10-03T06:14:32.123Z,5.03
2022-10-03T06:17:17.932Z,4.50
2022-10-03T06:19:51.602Z,4.37
2022-10-03T06:23:05.879Z,4.70
2022-10-03T06:26:01.786Z,3.70
2022-10-03T06:29:00.870Z,4.00
2022-10-03T06:32:03.486Z,4.80
2022-10-03T06:35:00.022Z,4.37
2022-10-03T06:37:59.584Z,4.83
2022-10-03T06:40:56.666Z,5.23
2022-10-03T06:43:52.345Z,3.60
2022-10-03T06:46:46.622Z,3.70
2022-10-03T06:49:41.517Z,3.80
2022-10-03T06:52:40.628Z,4.23
2022-10-03T06:55:37.110Z,4.10
2022-10-03T06:58:50.308Z,4.27
2022-10-03T07:01:49.488Z,4.47
2022-10-03T07:04:35.959Z,5.10
2022-10-03T07:07:20.256Z,4.50
2022-10-03T07:10:13.059Z,4.70
2022-10-03T07:13:09.245Z,4.23
2022-10-03T07:16:26.512Z,4.83
2022-10-03T07:19:19.220Z,3.30
2022-10-03T07:22:25.276Z,4.67
2022-10-03T07:25:39.815Z,4.13
2022-10-03T07:28:52.753Z,3.10
2022-10-03T07:31:36.811Z,3.80
2022-10-03T07:34:45.090Z,3.17
2022-10-03T07:37:26.730Z,4.07
2022-10-03T07:40:20.992Z,3.07
2022-10-03T07:43:24.105Z,4.30
2022-10-03T07:46:17.998Z,3.10
2022-10-03T07:49:15.021Z,3.67
2022-10-03T07:52:03.400Z,3.00
2022-10-03T07:55:04.943Z,3.60
2022-10-03T07:57:59.509Z,3.13
2022-10-03T08:00:40.376Z,3.17
2022-10-03T08:03:52.882Z,4.20
2022-10-03T08:06:31.250Z,3.33
2022-10-03T08:09:23.435Z,3.07
2022-10-03T08:12:22.081Z,5.13
2022-10-03T08:14:56.933Z,4.47
2022-10-03T08:18:08.160Z,2.80
2022-10-03T08:20:52.543Z,3.97
2022-10-03T08:24:07.666Z,3.77
2022-10-03T08:26:55.865Z,2.73
2022-10-03T08:29:49.182Z,4.20
2022-10-03T08:32:58.481Z,4.97
2022-10-03T08:36:01.273Z,3.03
2022-10-03T08:38:49.959Z,2.90
2022-10-03T08:42:01.818Z,3.70
2022-10-03T08:45:04.452Z,4.83
2022-10-03T08:48:08.499Z,3.10
2022-10-03T08:51:00.643Z,4.00
2022-10-03T08:54:18.295Z,3.30
2022-10-03T08:57:11.617Z,3.20
2022-10-03T09:00:04.589Z,4.47
2022-10-03T09:03:42.836Z,2.67
2022-10-03T09:07:16.052Z,3.10
2022-10-03T09:10:16.564Z,3.07
2022-10-03T09:13:13.264Z,3.30
2022-10-03T09:16:25.993Z,2.70
2022-10-03T09:19:18.818Z,3.20
2022-10-03T09:22:25.175Z,2.63
2022-10-03T09:25:14.833Z,2.20
2022-10-03T09:28:06.643Z,2.20
2022-10-03T09:30:46.648Z,2.37
2022-10-03T09:34:10.420Z,3.10
2022-10-03T09:37:13.114Z,3.30
2022-10-03T09:40:17.212Z,2.53
2022-10-03T09:43:22.581Z,3.20
2022-10-03T09:46:18.239Z,3.00
2022-10-03T09:49:12.141Z,2.20
2022-10-03T09:51:48.550Z,3.10
2022-10-03T09:54:51.550Z,2.50
2022-10-03T09:57:56.588Z,2.07
2022-10-03T10:00:29.928Z,2.30
2022-10-03T10:03:36.655Z,2.43
2022-10-03T10:06:16.116Z,1.63
2022-10-03T10:09:15.392Z,2.50
2022-10-03T10:12:14.630Z,2.57
2022-10-03T10:15:00.244Z,2.30
2022-10-03T10:18:01.798Z,3.03
2022-10-03T10:20:49.906Z,2.50
2022-10-03T10:23:36.733Z,2.27
2022-10-03T10:26:43.363Z,2.00
2022-10-03T10:29:57.063Z,2.60
2022-10-03T10:33:15.026Z,2.53
2022-10-03T10:36:30.127Z,2.30
2022-10-03T10:39:27.655Z,2.47
2022-10-03T10:42:26.952Z,2.70
2022-10-03T10:45:37.856Z,2.60
2022-10-03T10:48:52.321Z,1.40
2022-10-03T10:51:46.811Z,2.47
2022-10-03T10:54:41.269Z,2.13
2022-10-03T10:57:21.660Z,1.73
2022-10-03T11:00:32.136Z,2.27
2022-10-03T11:03:54.144Z,2.60
2022-10-03T11:06:58.460Z,2.57
2022-10-03T11:10:10.532Z,1.90
2022-10-03T11:13:25.938Z,2.47
2022-10-03T11:16:38.326Z,2.70
2022-10-03T11:20:01.576Z,2.00
2022-10-03T11:23:04.376Z,2.30
2022-10-03T11:26:06.783Z,1.90
2022-10-03T11:29:11.896Z,1.67
2022-10-03T11:32:25.014Z,2.03
2022-10-03T11:35:19.001Z,2.50
2022-10-03T11:37:51.221Z,1.93
2022-10-03T11:40:35.357Z,2.53
2022-10-03T11:43:40.770Z,2.33
2022-10-03T11:46:22.403Z,2.03
2022-10-03T11:48:56.609Z,1.80
2022-10-03T11:51:36.802Z,2.20
2022-10-03T11:54:30.534Z,2.70
2022-10-03T11:57:06.628Z,2.70
2022-10-03T11:59:45.293Z,2.33
2022-10-03T12:02:32.593Z,2.00
2022-10-03T12:05:07.739Z,1.87
2022-10-03T12:07:47.945Z,2.57
2022-10-03T12:10:26.779Z,1.80
2022-10-03T12:12:55.464Z,2.10
2022-10-03T12:15:34.378Z,2.00
2022-10-03T12:18:13.418Z,2.00
2022-10-03T12:21:09.937Z,1.77
2022-10-03T12:23:58.531Z,1.93
2022-10-03T12:26:38.403Z,1.70
2022-10-03T12:29:10.231Z,2.60
2022-10-03T12:31:42.494Z,1.70
2022-10-03T12:34:28.279Z,1.60
2022-10-03T12:37:08.945Z,1.60
2022-10-03T12:39:46.442Z,1.73
2022-10-03T12:42:26.946Z,2.03
2022-10-03T12:44:58.949Z,1.50
2022-10-03T12:47:54.310Z,2.20
2022-10-03T12:50:40.731Z,1.20
2022-10-03T12:53:25.135Z,1.60
2022-10-03T12:56:04.977Z,1.13
2022-10-03T12:58:43.567Z,1.60
2022-10-03T13:01:18.996Z,1.10
2022-10-03T13:03:53.851Z,1.40
2022-10-03T13:07:01.270Z,1.60
2022-10-03T13:09:36.980Z,1.23
2022-10-03T13:12:11.650Z,1.90
2022-10-03T13:15:20.620Z,1.53
2022-10-03T13:17:56.211Z,1.80
2022-10-03T13:20:29.792Z,1.50
2022-10-03T13:23:05.671Z,1.60
2022-10-03T13:25:39.444Z,1.60
2022-10-03T13:28:12.936Z,1.80
2022-10-03T13:30:47.225Z,1.83
2022-10-03T13:33:18.397Z,2.63
2022-10-03T13:35:50.158Z,1.80
2022-10-03T13:38:31.589Z,1.40
2022-10-03T13:41:08.662Z,1.23
2022-10-03T13:43:39.988Z,1.83
2022-10-03T13:46:12.832Z,1.77
2022-10-03T13:48:43.545Z,1.40
2022-10-03T13:51:24.159Z,2.20
2022-10-03T13:54:01.243Z,2.20
2022-10-03T13:56:41.069Z,1.63
2022-10-03T13:59:24.893Z,1.50
2022-10-03T14:02:00.637Z,2.10
2022-10-03T14:04:57.301Z,1.70
2022-10-03T14:07:35.278Z,1.90
2022-10-03T14:10:39.393Z,2.93
2022-10-03T14:13:18.040Z,2.10
2022-10-03T14:15:51.331Z,2.20
2022-10-03T14:18:31.597Z,1.83
2022-10-03T14:21:29.974Z,2.40
2022-10-03T14:24:10.904Z,2.10
2022-10-03T14:26:47.180Z,1.50
2022-10-03T14:29:23.041Z,2.00
2022-10-03T14:31:57.616Z,1.17
2022-10-03T14:34:36.575Z,1.40
2022-10-03T14:37:13.705Z,2.00
2022-10-03T14:39:45.332Z,1.93
2022-10-03T14:42:35.484Z,2.40
2022-10-03T14:45:06.659Z,1.73
2022-10-03T14:47:36.880Z,1.70
2022-10-03T14:50:05.083Z,1.60
2022-10-03T14:52:38.316Z,1.67
2022-10-03T14:55:12.316Z,1.03
2022-10-03T14:58:08.680Z,1.50
2022-10-03T15:00:38.261Z,0.97
2022-10-03T15:03:31.730Z,0.80
2022-10-03T15:06:02.919Z,0.87
2022-10-03T15:08:36.062Z,2.00
2022-10-03T15:11:04.435Z,1.20
2022-10-03T15:13:36.487Z,1.23
2022-10-03T15:16:03.692Z,0.80
2022-10-03T15:18:31.739Z,1.20
2022-10-03T15:20:58.805Z,1.07
2022-10-03T15:23:31.375Z,1.23
2022-10-03T15:25:58.534Z,1.80
2022-10-03T15:28:30.224Z,1.27
2022-10-03T15:31:09.448Z,1.30
2022-10-03T15:33:38.559Z,1.70
2022-10-03T15:36:14.077Z,1.40
2022-10-03T15:38:43.355Z,1.67
2022-10-03T15:41:14.625Z,1.07
2022-10-03T15:43:52.905Z,2.20
2022-10-03T15:46:31.907Z,1.57
2022-10-03T15:49:02.789Z,1.70
2022-10-03T15:51:30.536Z,1.70
2022-10-03T15:53:59.726Z,1.83
2022-10-03T15:56:31.868Z,1.73
2022-10-03T15:59:01.938Z,2.80
2022-10-03T16:01:34.518Z,1.73
2022-10-03T16:04:02.967Z,1.50
2022-10-03T16:06:39.068Z,1.73
2022-10-03T16:09:14.078Z,1.33
2022-10-03T16:11:53.182Z,1.87
2022-10-03T16:14:24.743Z,1.27
2022-10-03T16:16:56.316Z,1.90
2022-10-03T16:19:38.271Z,1.60
2022-10-03T16:22:15.739Z,1.70
2022-10-03T16:24:48.658Z,1.23
2022-10-03T16:27:19.576Z,1.80
2022-10-03T16:29:55.133Z,2.10
2022-10-03T16:32:27.133Z,2.40
2022-10-03T16:35:00.176Z,1.90
2022-10-03T16:37:28.474Z,1.77
2022-10-03T16:39:59.658Z,2.20
2022-10-03T16:42:35.668Z,1.90
2022-10-03T16:45:02.984Z,1.80
2022-10-03T16:47:37.144Z,1.70
2022-10-03T16:50:18.752Z,1.70
2022-10-03T16:52:51.221Z,1.90
2022-10-03T16:55:24.304Z,2.13
2022-10-03T16:57:56.278Z,2.00
2022-10-03T17:00:26.454Z,1.87
2022-10-03T17:02:55.654Z,1.90
2022-10-03T17:05:23.322Z,1.10
2022-10-03T17:07:53.940Z,1.67
2022-10-03T17:10:34.319Z,1.73
2022-10-03T17:13:05.598Z,2.00
2022-10-03T17:15:35.074Z,1.63
2022-10-03T17:18:16.323Z,1.63
2022-10-03T17:20:46.373Z,1.87
2022-10-03T17:23:24.003Z,1.80
2022-10-03T17:25:59.862Z,1.87
2022-10-03T17:28:36.458Z,1.97
2022-10-03T17:31:06.110Z,1.80
2022-10-03T17:33:41.344Z,1.47
2022-10-03T17:36:51.353Z,1.87
2022-10-03T17:39:33.811Z,2.40
2022-10-03T17:42:07.959Z,2.23
2022-10-03T17:44:38.261Z,1.70
2022-10-03T17:47:12.384Z,1.83
2022-10-03T17:49:50.078Z,1.33
2022-10-03T17:52:19.770Z,1.97
2022-10-03T17:54:48.366Z,2.07
2022-10-03T17:57:23.051Z,1.53
2022-10-03T17:59:59.387Z,1.83
2022-10-03T18:02:35.310Z,2.10
2022-10-03T18:05:12.450Z,1.63
2022-10-03T18:07:40.655Z,1.70
2022-10-03T18:10:19.153Z,1.90
2022-10-03T18:12:48.553Z,1.90
2022-10-03T18:15:36.559Z,2.17
2022-10-03T18:18:26.474Z,1.53
2022-10-03T18:21:00.133Z,1.50
2022-10-03T18:23:54.175Z,2.43
2022-10-03T18:26:26.995Z,2.90
2022-10-03T18:29:03.656Z,2.30
2022-10-03T18:31:31.961Z,1.90
2022-10-03T18:34:01.673Z,2.13
2022-10-03T18:36:33.734Z,2.13
2022-10-03T18:39:06.429Z,2.07
2022-10-03T18:41:34.039Z,2.67
2022-10-03T18:44:01.942Z,1.60
2022-10-03T18:46:33.467Z,2.63
2022-10-03T18:49:32.516Z,2.53
2022-10-03T18:51:59.254Z,3.47
2022-10-03T18:54:35.976Z,3.70
2022-10-03T18:57:11.010Z,2.53
2022-10-03T18:59:47.004Z,2.23
2022-10-03T19:02:21.404Z,2.57
2022-10-03T19:04:54.490Z,2.10
2022-10-03T19:07:24.660Z,2.87
2022-10-03T19:10:18.797Z,2.73
2022-10-03T19:12:48.777Z,2.30
2022-10-03T19:15:21.132Z,2.10
2022-10-03T19:18:03.330Z,1.93
2022-10-03T19:20:36.079Z,1.77
2022-10-03T19:23:11.427Z,2.17
2022-10-03T19:25:40.769Z,2.30
2022-10-03T19:28:16.829Z,1.90
2022-10-03T19:30:44.272Z,2.00
2022-10-03T19:33:19.183Z,2.40
2022-10-03T19:35:47.626Z,1.73
2022-10-03T19:38:18.172Z,1.53
2022-10-03T19:40:54.768Z,1.70
2022-10-03T19:43:35.101Z,1.53
2022-10-03T19:46:18.769Z,1.60
2022-10-03T19:48:49.525Z,2.80
2022-10-03T19:51:22.738Z,1.80
2022-10-03T19:53:54.976Z,1.80
2022-10-03T19:56:24.019Z,1.90
2022-10-03T19:59:00.506Z,1.70
2022-10-03T20:01:27.557Z,1.77
2022-10-03T20:03:56.391Z,2.10
2022-10-03T20:06:26.661Z,2.10
2022-10-03T20:08:59.170Z,1.90
2022-10-03T20:11:39.088Z,2.00
2022-10-03T20:14:06.701Z,2.00
2022-10-03T20:16:43.629Z,1.80
2022-10-03T20:19:13.301Z,1.87
2022-10-03T20:21:40.439Z,2.07
2022-10-03T20:24:20.006Z,1.77
2022-10-03T20:26:55.485Z,2.13
2022-10-03T20:29:30.353Z,1.80
2022-10-03T20:32:01.826Z,1.93
2022-10-03T20:34:30.039Z,2.17
2022-10-03T20:37:14.221Z,2.10
2022-10-03T20:39:45.775Z,2.30
2022-10-03T20:42:16.449Z,1.83
2022-10-03T20:44:53.673Z,1.57
2022-10-03T20:47:35.404Z,1.73
2022-10-03T20:50:11.179Z,1.73
2022-10-03T20:52:38.523Z,1.90
2022-10-03T20:55:16.451Z,2.70
2022-10-03T20:57:53.183Z,2.33
2022-10-03T21:00:23.867Z,1.80
2022-10-03T21:02:56.201Z,1.50
2022-10-03T21:05:25.447Z,2.00
2022-10-03T21:07:55.757Z,2.53
2022-10-03T21:10:28.776Z,1.30
2022-10-03T21:12:58.908Z,2.07
2022-10-03T21:15:37.875Z,2.10
2022-10-03T21:18:05.917Z,2.10
2022-10-03T21:20:37.356Z,1.63
2022-10-03T21:23:12.163Z,2.00
2022-10-03T21:25:42.462Z,2.27
2022-10-03T21:28:22.664Z,2.20
2022-10-03T21:31:03.299Z,2.00
2022-10-03T21:33:33.048Z,2.13
2022-10-03T21:36:07.911Z,1.47
2022-10-03T21:38:37.458Z,1.80
2022-10-03T21:41:23.823Z,1.40
2022-10-03T21:43:53.924Z,1.73
2022-10-03T21:46:26.468Z,1.87
2022-10-03T21:49:06.138Z,1.77
2022-10-03T21:51:42.646Z,2.20
2022-10-03T21:54:29.640Z,2.17
2022-10-03T21:57:09.282Z,1.60
2022-10-03T21:59:55.413Z,1.30
2022-10-03T22:02:31.855Z,2.20
2022-10-03T22:05:07.307Z,2.13
2022-10-03T22:07:40.241Z,1.77
2022-10-03T22:10:20.537Z,1.50
2022-10-03T22:12:55.310Z,1.80
2022-10-03T22:15:29.955Z,1.60
2022-10-03T22:18:00.587Z,1.67
2022-10-03T22:20:30.035Z,1.67
2022-10-03T22:23:20.334Z,1.47
2022-10-03T22:26:14.619Z,1.70
2022-10-03T22:28:52.015Z,1.53
2022-10-03T22:31:26.776Z,1.40
2022-10-03T22:34:10.538Z,2.13
2022-10-03T22:36:38.824Z,2.13
2022-10-03T22:39:09.593Z,1.63
2022-10-03T22:41:38.175Z,2.50
2022-10-03T22:44:09.986Z,1.47
2022-10-03T22:46:40.050Z,1.50
2022-10-03T22:49:11.371Z,1.90
2022-10-03T22:51:39.265Z,1.60
2022-10-03T22:54:10.869Z,1.53
2022-10-03T22:56:44.231Z,1.60
2022-10-03T22:59:18.532Z,2.37
2022-10-03T23:01:46.945Z,2.50
2022-10-03T23:04:18.697Z,1.87
2022-10-03T23:07:13.145Z,2.00
2022-10-03T23:09:49.765Z,1.53
2022-10-03T23:12:18.623Z,1.60
2022-10-03T23:14:50.227Z,1.60
2022-10-03T23:17:44.901Z,1.30
2022-10-03T23:20:17.231Z,2.50
2022-10-03T23:22:47.577Z,1.63
2022-10-03T23:25:20.491Z,1.90
2022-10-03T23:28:00.100Z,2.33
2022-10-03T23:30:52.630Z,1.23
2022-10-03T23:33:47.665Z,1.80
2022-10-03T23:36:17.810Z,1.77
2022-10-03T23:38:58.458Z,1.27
2022-10-03T23:41:55.945Z,1.53
2022-10-03T23:44:31.391Z,1.63
2022-10-03T23:47:00.742Z,1.30
2022-10-03T23:49:29.358Z,1.63
2022-10-03T23:51:58.694Z,2.73
2022-10-03T23:54:27.052Z,2.13
2022-10-03T23:56:54.091Z,1.50
2022-10-03T23:59:24.923Z,2.00
